createdAt,value
2018-09-28T00:00:15.219Z,999.90
2018-09-28T00:02:43.081Z,999.90
2018-09-28T00:05:10.951Z,999.90
2018-09-28T00:07:38.827Z,999.90
2018-09-28T00:10:06.700Z,999.90
2018-09-28T00:12:34.587Z,999.90
2018-09-28T00:15:02.456Z,999.90
2018-09-28T00:17:30.336Z,999.90
2018-09-28T00:19:58.203Z,999.90
2018-09-28T00:22:26.064Z,999.90
2018-09-28T00:24:53.919Z,999.90
2018-09-28T00:27:21.784Z,999.90
2018-09-28T00:29:49.704Z,999.90
2018-09-28T00:32:17.599Z,999.90
2018-09-28T00:34:45.464Z,999.90
2018-09-28T00:37:13.440Z,999.90
2018-09-28T00:39:41.308Z,999.90
2018-09-28T00:42:09.211Z,999.90
2018-09-28T00:44:37.350Z,999.90
2018-09-28T00:47:05.222Z,999.90
2018-09-28T00:49:33.090Z,999.90
2018-09-28T00:52:00.958Z,999.90
2018-09-28T00:54:28.819Z,999.90
2018-09-28T00:56:56.679Z,999.90
2018-09-28T00:59:24.560Z,999.90
2018-09-28T01:01:52.412Z,999.90
2018-09-28T01:04:20.284Z,999.90
2018-09-28T01:06:48.143Z,999.90
2018-09-28T01:09:16.404Z,999.90
2018-09-28T01:11:44.693Z,999.90
2018-09-28T01:14:12.567Z,999.90
2018-09-28T01:16:40.466Z,999.90
2018-09-28T01:19:08.350Z,999.90
2018-09-28T01:21:36.218Z,999.90
2018-09-28T01:24:04.078Z,999.90
2018-09-28T01:26:32.031Z,999.90
2018-09-28T01:28:59.919Z,999.90
2018-09-28T01:31:27.870Z,999.90
2018-09-28T01:33:55.749Z,999.90
2018-09-28T01:36:23.680Z,999.90
2018-09-28T01:38:51.548Z,999.90
2018-09-28T01:41:19.408Z,999.90
2018-09-28T01:43:47.281Z,999.90
2018-09-28T01:46:15.139Z,999.90
2018-09-28T01:48:43.004Z,999.90
2018-09-28T01:51:10.869Z,999.90
2018-09-28T01:53:38.756Z,999.90
2018-09-28T01:56:06.660Z,999.90
2018-09-28T01:58:34.563Z,999.90
2018-09-28T02:01:02.430Z,999.90
2018-09-28T02:03:30.330Z,999.90
2018-09-28T02:05:58.207Z,999.90
2018-09-28T02:08:26.074Z,999.90
2018-09-28T02:10:53.957Z,999.90
2018-09-28T02:13:21.840Z,999.90
2018-09-28T02:15:49.770Z,999.90
2018-09-28T02:18:17.598Z,999.90
2018-09-28T02:20:45.483Z,999.90
2018-09-28T02:23:13.361Z,999.90
2018-09-28T02:25:41.249Z,999.90
2018-09-28T02:28:09.138Z,999.90
2018-09-28T02:30:37.028Z,999.90
2018-09-28T02:33:04.944Z,999.90
2018-09-28T02:35:32.813Z,999.90
2018-09-28T02:38:00.659Z,999.90
2018-09-28T02:40:28.584Z,999.90
2018-09-28T02:42:56.443Z,999.90
2018-09-28T02:45:24.322Z,999.90
2018-09-28T02:47:52.198Z,999.90
2018-09-28T02:50:20.083Z,999.90
2018-09-28T02:52:47.951Z,999.90
2018-09-28T02:55:15.880Z,999.90
2018-09-28T02:57:43.810Z,999.90
2018-09-28T03:00:11.706Z,999.90
2018-09-28T03:02:39.627Z,999.90
2018-09-28T03:05:07.520Z,999.90
2018-09-28T03:07:35.416Z,999.90
2018-09-28T03:10:03.300Z,999.90
2018-09-28T03:12:31.164Z,999.90
2018-09-28T03:14:59.034Z,999.90
2018-09-28T03:17:26.952Z,999.90
2018-09-28T03:19:54.847Z,999.90
2018-09-28T03:22:22.738Z,999.90
2018-09-28T03:24:50.652Z,999.90
2018-09-28T03:27:18.574Z,999.90
2018-09-28T03:29:46.472Z,999.90
2018-09-28T03:32:14.342Z,999.90
2018-09-28T03:34:42.234Z,999.90
2018-09-28T03:37:10.098Z,999.90
2018-09-28T03:39:38.022Z,999.90
2018-09-28T03:42:09.727Z,999.90
2018-09-28T03:44:37.625Z,999.90
2018-09-28T03:47:05.490Z,999.90
2018-09-28T03:49:33.417Z,999.90
2018-09-28T03:52:01.317Z,999.90
2018-09-28T03:54:29.210Z,999.90
2018-09-28T03:56:58.147Z,999.90
2018-09-28T03:59:26.030Z,999.90
2018-09-28T04:01:53.928Z,999.90
2018-09-28T04:04:21.832Z,999.90
2018-09-28T04:06:49.727Z,999.90
2018-09-28T04:09:17.597Z,999.90
2018-09-28T04:11:45.488Z,999.90
2018-09-28T04:14:13.367Z,999.90
2018-09-28T04:16:41.289Z,999.90
2018-09-28T04:19:09.158Z,999.90
2018-09-28T04:21:37.035Z,999.90
2018-09-28T04:24:04.913Z,999.90
2018-09-28T04:26:32.793Z,999.90
2018-09-28T04:29:00.669Z,999.90
2018-09-28T04:31:28.534Z,999.90
2018-09-28T04:34:01.331Z,999.90
2018-09-28T04:36:29.233Z,999.90
2018-09-28T04:38:57.382Z,999.90
2018-09-28T04:41:25.272Z,999.90
2018-09-28T04:43:53.155Z,999.90
2018-09-28T04:46:26.228Z,999.90
2018-09-28T04:48:54.095Z,999.90
2018-09-28T04:51:21.960Z,999.90
2018-09-28T04:53:49.824Z,999.90
2018-09-28T04:56:17.698Z,999.90
2018-09-28T04:58:45.565Z,999.90
2018-09-28T05:01:13.429Z,999.90
2018-09-28T05:03:41.308Z,999.90
2018-09-28T05:06:09.341Z,999.90
2018-09-28T05:08:37.484Z,999.90
2018-09-28T05:11:05.350Z,999.90
2018-09-28T05:13:33.290Z,999.90
2018-09-28T05:16:01.282Z,999.90
2018-09-28T05:18:29.175Z,999.90
2018-09-28T05:20:57.044Z,999.90
2018-09-28T05:23:24.925Z,999.90
2018-09-28T05:25:52.876Z,999.90
2018-09-28T05:28:20.744Z,999.90
2018-09-28T05:30:53.970Z,999.90
2018-09-28T05:33:16.494Z,999.90
2018-09-28T05:35:44.363Z,999.90
2018-09-28T05:38:12.218Z,999.90
2018-09-28T05:40:40.570Z,999.90
2018-09-28T05:43:08.600Z,999.90
2018-09-28T05:45:36.480Z,999.90
2018-09-28T05:48:04.335Z,999.90
2018-09-28T05:50:32.207Z,999.90
2018-09-28T05:53:00.072Z,999.90
2018-09-28T05:55:27.923Z,999.90
2018-09-28T05:58:01.411Z,999.90
2018-09-28T06:00:34.937Z,999.90
2018-09-28T06:03:04.468Z,999.90
2018-09-28T06:05:32.968Z,999.90
2018-09-28T06:08:01.332Z,999.90
2018-09-28T06:10:29.209Z,999.90
2018-09-28T06:12:57.076Z,999.90
2018-09-28T06:15:24.930Z,999.90
2018-09-28T06:17:52.805Z,999.90
2018-09-28T06:20:20.721Z,999.90
2018-09-28T06:22:48.587Z,999.90
2018-09-28T06:25:16.523Z,873.30
2018-09-28T06:27:44.428Z,999.90
2018-09-28T06:30:12.314Z,999.90
2018-09-28T06:32:40.162Z,989.23
2018-09-28T06:35:08.028Z,999.90
2018-09-28T06:37:35.919Z,999.90
2018-09-28T06:40:03.778Z,999.90
2018-09-28T06:42:31.711Z,999.90
2018-09-28T06:44:59.517Z,999.90
2018-09-28T06:47:27.390Z,999.90
2018-09-28T06:49:55.267Z,899.50
2018-09-28T06:52:23.138Z,999.90
2018-09-28T06:54:51.008Z,993.23
2018-09-28T06:57:19.691Z,999.90
2018-09-28T06:59:47.599Z,999.90
2018-09-28T07:02:15.531Z,985.47
2018-09-28T07:04:43.440Z,999.90
2018-09-28T07:07:11.311Z,968.13
2018-09-28T07:09:39.196Z,999.90
2018-09-28T07:12:07.081Z,956.17
2018-09-28T07:14:34.934Z,999.90
2018-09-28T07:17:02.804Z,949.80
2018-09-28T07:19:30.666Z,999.90
2018-09-28T07:21:58.544Z,959.13
2018-09-28T07:24:27.288Z,977.07
2018-09-28T07:26:55.246Z,863.37
2018-09-28T07:29:23.122Z,757.27
2018-09-28T07:31:51.267Z,802.17
2018-09-28T07:34:19.159Z,828.57
2018-09-28T07:36:47.097Z,822.57
2018-09-28T07:39:14.882Z,858.10
2018-09-28T07:41:42.760Z,782.10
2018-09-28T07:44:10.719Z,985.63
2018-09-28T07:46:38.592Z,451.10
2018-09-28T07:49:06.499Z,445.43
2018-09-28T07:51:34.519Z,526.37
2018-09-28T07:54:02.387Z,698.03
2018-09-28T07:56:30.249Z,602.43
2018-09-28T07:58:58.133Z,618.40
2018-09-28T08:01:25.981Z,953.87
2018-09-28T08:03:53.894Z,996.17
2018-09-28T08:06:21.716Z,647.10
2018-09-28T08:08:49.602Z,850.17
2018-09-28T08:11:17.501Z,984.73
2018-09-28T08:13:45.375Z,768.50
2018-09-28T08:16:13.253Z,492.47
2018-09-28T08:18:41.106Z,776.10
2018-09-28T08:21:08.966Z,763.37
2018-09-28T08:23:36.820Z,125.13
2018-09-28T08:26:04.770Z,423.43
2018-09-28T08:28:32.656Z,264.50
2018-09-28T08:31:00.525Z,47.73
2018-09-28T08:33:28.395Z,67.03
2018-09-28T08:35:56.269Z,150.10
2018-09-28T08:38:24.129Z,35.10
2018-09-28T08:40:51.990Z,18.43
2018-09-28T08:43:19.851Z,71.37
2018-09-28T08:45:47.703Z,11.07
2018-09-28T08:48:15.559Z,18.13
2018-09-28T08:50:43.424Z,17.10
2018-09-28T08:53:11.292Z,29.87
2018-09-28T08:55:39.153Z,47.60
2018-09-28T08:58:07.012Z,89.10
2018-09-28T09:00:34.891Z,30.53
2018-09-28T09:03:02.760Z,58.80
2018-09-28T09:05:30.599Z,17.30
2018-09-28T09:07:58.448Z,101.53
2018-09-28T09:10:26.322Z,32.67
2018-09-28T09:12:54.181Z,123.73
2018-09-28T09:15:22.039Z,72.83
2018-09-28T09:17:49.911Z,37.30
2018-09-28T09:20:17.779Z,68.50
2018-09-28T09:22:45.632Z,17.03
2018-09-28T09:25:13.500Z,128.73
2018-09-28T09:27:41.366Z,8.10
2018-09-28T09:30:09.251Z,7.60
2018-09-28T09:32:37.095Z,11.77
2018-09-28T09:35:04.989Z,109.70
2018-09-28T09:37:32.839Z,9.33
2018-09-28T09:40:00.704Z,9.27
2018-09-28T09:42:28.571Z,10.63
2018-09-28T09:44:56.423Z,6.00
2018-09-28T09:47:24.283Z,22.57
2018-09-28T09:49:52.147Z,10.77
2018-09-28T09:52:20.003Z,27.37
2018-09-28T09:54:47.877Z,9.37
2018-09-28T09:57:15.786Z,8.43
2018-09-28T09:59:43.647Z,38.73
2018-09-28T10:02:17.088Z,106.23
2018-09-28T10:04:44.948Z,18.53
2018-09-28T10:07:12.809Z,13.83
2018-09-28T10:09:40.704Z,6.30
2018-09-28T10:12:08.573Z,34.83
2018-09-28T10:14:36.455Z,8.73
2018-09-28T10:17:04.302Z,7.07
2018-09-28T10:19:32.183Z,5.57
2018-09-28T10:22:00.008Z,9.53
2018-09-28T10:24:27.877Z,12.27
2018-09-28T10:26:55.793Z,6.87
2018-09-28T10:29:23.605Z,6.70
2018-09-28T10:31:51.455Z,7.07
2018-09-28T10:34:19.367Z,42.60
2018-09-28T10:36:47.227Z,79.43
2018-09-28T10:39:15.085Z,19.33
2018-09-28T10:41:42.940Z,9.90
2018-09-28T10:44:10.800Z,211.80
2018-09-28T10:46:38.768Z,11.10
2018-09-28T10:49:06.551Z,33.27
2018-09-28T10:51:34.421Z,24.40
2018-09-28T10:54:02.258Z,32.73
2018-09-28T10:56:30.127Z,9.37
2018-09-28T10:58:58.117Z,15.90
2018-09-28T11:01:25.879Z,30.33
2018-09-28T11:03:53.728Z,17.63
2018-09-28T11:06:21.595Z,21.97
2018-09-28T11:08:49.497Z,20.50
2018-09-28T11:11:17.336Z,15.30
2018-09-28T11:13:45.196Z,10.70
2018-09-28T11:16:13.055Z,24.87
2018-09-28T11:18:40.911Z,30.67
2018-09-28T11:21:08.827Z,10.43
2018-09-28T11:23:36.638Z,14.00
2018-09-28T11:26:04.503Z,14.80
2018-09-28T11:28:32.375Z,42.70
2018-09-28T11:31:00.231Z,12.80
2018-09-28T11:33:28.163Z,25.23
2018-09-28T11:35:55.950Z,22.20
2018-09-28T11:38:23.814Z,10.27
2018-09-28T11:40:51.676Z,11.47
2018-09-28T11:43:19.550Z,11.83
2018-09-28T11:45:47.473Z,15.90
2018-09-28T11:48:15.284Z,15.13
2018-09-28T11:50:43.137Z,13.80
2018-09-28T11:53:10.979Z,13.90
2018-09-28T11:55:38.830Z,13.43
2018-09-28T11:58:06.732Z,13.43
2018-09-28T12:00:34.614Z,8.97
2018-09-28T12:03:02.474Z,15.53
2018-09-28T12:05:30.380Z,26.67
2018-09-28T12:07:58.218Z,11.93
2018-09-28T12:10:26.198Z,14.00
2018-09-28T12:12:54.110Z,12.27
2018-09-28T12:15:22.044Z,14.50
2018-09-28T12:17:49.884Z,9.10
2018-09-28T12:20:17.743Z,16.80
2018-09-28T12:22:45.607Z,17.07
2018-09-28T12:25:13.608Z,17.67
2018-09-28T12:27:41.550Z,19.83
2018-09-28T12:30:09.507Z,23.13
2018-09-28T12:32:37.441Z,16.03
2018-09-28T12:35:05.311Z,17.70
2018-09-28T12:37:33.184Z,45.80
2018-09-28T12:40:01.178Z,27.77
2018-09-28T12:42:29.037Z,13.67
2018-09-28T12:44:57.072Z,19.17
2018-09-28T12:47:24.871Z,19.67
2018-09-28T12:49:52.724Z,19.57
2018-09-28T12:52:20.611Z,34.37
2018-09-28T12:54:48.660Z,31.17
2018-09-28T12:57:16.494Z,26.43
2018-09-28T12:59:44.357Z,15.80
2018-09-28T13:02:12.344Z,20.27
2018-09-28T13:04:40.194Z,18.60
2018-09-28T13:07:08.168Z,20.43
2018-09-28T13:09:36.078Z,18.57
2018-09-28T13:12:03.936Z,13.00
2018-09-28T13:14:31.880Z,27.47
2018-09-28T13:16:59.803Z,16.53
2018-09-28T13:19:27.655Z,17.80
2018-09-28T13:21:55.524Z,20.67
2018-09-28T13:24:23.521Z,18.60
2018-09-28T13:26:51.426Z,32.33
2018-09-28T13:29:19.339Z,42.40
2018-09-28T13:31:47.943Z,12.90
2018-09-28T13:34:15.860Z,35.10
2018-09-28T13:36:43.807Z,52.63
2018-09-28T13:39:11.709Z,19.57
2018-09-28T13:41:39.724Z,17.83
2018-09-28T13:44:07.671Z,13.60
2018-09-28T13:46:35.544Z,4.23
2018-09-28T13:49:03.456Z,5.57
2018-09-28T13:51:31.332Z,22.87
2018-09-28T13:53:59.439Z,6.67
2018-09-28T13:56:27.416Z,14.27
2018-09-28T13:58:55.299Z,11.53
2018-09-28T14:01:23.155Z,27.53
2018-09-28T14:03:51.207Z,12.20
2018-09-28T14:06:19.154Z,21.57
2018-09-28T14:08:47.029Z,12.27
2018-09-28T14:11:14.843Z,17.00
2018-09-28T14:13:42.716Z,14.53
2018-09-28T14:16:10.593Z,19.87
2018-09-28T14:18:38.471Z,19.30
2018-09-28T14:21:06.439Z,25.17
2018-09-28T14:23:34.321Z,27.23
2018-09-28T14:26:02.231Z,23.17
2018-09-28T14:28:30.206Z,19.17
2018-09-28T14:30:57.991Z,17.17
2018-09-28T14:33:25.855Z,16.50
2018-09-28T14:35:53.711Z,16.43
2018-09-28T14:38:21.742Z,18.03
2018-09-28T14:40:49.661Z,25.03
2018-09-28T14:43:17.519Z,15.60
2018-09-28T14:45:45.368Z,34.87
2018-09-28T14:48:13.327Z,40.90
2018-09-28T14:50:41.212Z,71.10
2018-09-28T14:53:09.030Z,14.00
2018-09-28T14:55:36.888Z,15.97
2018-09-28T14:58:04.748Z,16.03
2018-09-28T15:00:32.771Z,25.30
2018-09-28T15:03:00.566Z,18.33
2018-09-28T15:05:28.456Z,9.80
2018-09-28T15:07:57.138Z,14.07
2018-09-28T15:10:25.114Z,24.83
2018-09-28T15:12:52.948Z,14.27
2018-09-28T15:15:20.821Z,13.00
2018-09-28T15:17:48.809Z,12.10
2018-09-28T15:20:16.721Z,15.83
2018-09-28T15:22:44.584Z,13.80
2018-09-28T15:25:12.642Z,15.70
2018-09-28T15:27:40.543Z,20.13
2018-09-28T15:30:08.656Z,13.53
2018-09-28T15:32:36.626Z,17.57
2018-09-28T15:35:04.538Z,22.37
2018-09-28T15:37:32.364Z,17.70
2018-09-28T15:40:00.229Z,16.07
2018-09-28T15:42:28.158Z,19.50
2018-09-28T15:44:56.003Z,17.00
2018-09-28T15:47:23.909Z,17.00
2018-09-28T15:49:51.763Z,16.97
2018-09-28T15:52:19.716Z,19.47
2018-09-28T15:54:47.575Z,14.60
2018-09-28T15:57:15.448Z,15.23
2018-09-28T15:59:43.300Z,17.30
2018-09-28T16:02:11.152Z,17.10
2018-09-28T16:04:38.999Z,18.70
2018-09-28T16:07:07.106Z,13.90
2018-09-28T16:09:35.154Z,19.20
2018-09-28T16:12:07.512Z,15.70
2018-09-28T16:14:35.460Z,26.70
2018-09-28T16:17:03.442Z,12.33
2018-09-28T16:19:31.377Z,12.53
2018-09-28T16:21:59.239Z,12.47
2018-09-28T16:24:27.085Z,12.43
2018-09-28T16:26:54.938Z,11.07
2018-09-28T16:29:22.847Z,7.00
2018-09-28T16:31:50.702Z,6.43
2018-09-28T16:34:18.564Z,5.70
2018-09-28T16:36:46.442Z,6.73
2018-09-28T16:39:14.443Z,6.10
2018-09-28T16:41:42.287Z,6.37
2018-09-28T16:44:10.165Z,4.73
2018-09-28T16:46:38.026Z,4.93
2018-09-28T16:49:05.879Z,5.00
2018-09-28T16:51:34.551Z,9.93
2018-09-28T16:54:02.420Z,5.13
2018-09-28T16:56:30.287Z,5.07
2018-09-28T16:58:58.155Z,4.83
2018-09-28T17:01:26.000Z,4.60
2018-09-28T17:03:53.859Z,4.87
2018-09-28T17:06:21.728Z,4.63
2018-09-28T17:08:49.615Z,5.13
2018-09-28T17:11:17.469Z,4.23
2018-09-28T17:13:45.343Z,3.97
2018-09-28T17:16:13.183Z,4.87
2018-09-28T17:18:41.047Z,3.70
2018-09-28T17:21:08.908Z,4.80
2018-09-28T17:23:36.779Z,4.40
2018-09-28T17:26:04.623Z,4.80
2018-09-28T17:28:32.548Z,4.63
2018-09-28T17:31:00.435Z,5.20
2018-09-28T17:33:28.279Z,4.80
2018-09-28T17:35:56.752Z,4.47
2018-09-28T17:38:24.603Z,5.57
2018-09-28T17:40:52.463Z,4.60
2018-09-28T17:43:20.327Z,4.90
2018-09-28T17:45:48.306Z,3.90
2018-09-28T17:48:16.175Z,5.53
2018-09-28T17:50:44.028Z,14.57
2018-09-28T17:53:11.883Z,8.60
2018-09-28T17:55:39.808Z,7.20
2018-09-28T17:58:07.679Z,15.37
2018-09-28T18:00:35.543Z,9.70
2018-09-28T18:03:03.393Z,13.03
2018-09-28T18:05:31.298Z,23.87
2018-09-28T18:07:59.135Z,32.70
2018-09-28T18:10:27.003Z,87.57
2018-09-28T18:12:54.881Z,157.40
2018-09-28T18:15:22.865Z,409.03
2018-09-28T18:17:50.726Z,399.07
2018-09-28T18:20:18.641Z,798.57
2018-09-28T18:22:46.489Z,875.97
2018-09-28T18:25:14.372Z,741.70
2018-09-28T18:27:42.254Z,802.47
2018-09-28T18:30:10.131Z,920.47
2018-09-28T18:32:37.994Z,752.03
2018-09-28T18:35:06.050Z,730.13
2018-09-28T18:37:33.956Z,847.27
2018-09-28T18:40:01.856Z,777.00
2018-09-28T18:42:29.720Z,767.17
2018-09-28T18:44:57.606Z,713.17
2018-09-28T18:47:25.455Z,771.50
2018-09-28T18:49:53.343Z,776.10
2018-09-28T18:52:21.211Z,826.27
2018-09-28T18:54:49.082Z,903.10
2018-09-28T18:57:16.948Z,915.63
2018-09-28T18:59:45.243Z,978.43
2018-09-28T19:02:13.292Z,999.90
2018-09-28T19:04:41.348Z,999.90
2018-09-28T19:07:09.529Z,999.90
2018-09-28T19:09:37.949Z,937.60
2018-09-28T19:12:06.093Z,985.60
2018-09-28T19:14:34.194Z,972.10
2018-09-28T19:17:02.333Z,992.80
2018-09-28T19:19:30.212Z,971.13
2018-09-28T19:21:58.140Z,825.97
2018-09-28T19:24:26.047Z,737.60
2018-09-28T19:26:53.917Z,564.53
2018-09-28T19:29:21.808Z,693.40
2018-09-28T19:31:49.691Z,625.70
2018-09-28T19:34:17.585Z,663.97
2018-09-28T19:36:45.490Z,590.40
2018-09-28T19:39:13.391Z,585.87
2018-09-28T19:41:41.277Z,557.57
2018-09-28T19:44:09.543Z,511.47
2018-09-28T19:46:37.437Z,397.90
2018-09-28T19:49:05.562Z,571.43
2018-09-28T19:51:33.620Z,654.70
2018-09-28T19:54:01.993Z,317.13
2018-09-28T19:56:29.928Z,726.40
2018-09-28T19:58:57.855Z,888.27
2018-09-28T20:01:25.740Z,999.90
2018-09-28T20:03:53.704Z,903.87
2018-09-28T20:06:22.767Z,999.90
2018-09-28T20:08:50.684Z,999.90
2018-09-28T20:11:18.624Z,993.73
2018-09-28T20:13:46.626Z,914.30
2018-09-28T20:16:14.567Z,863.53
2018-09-28T20:18:42.574Z,938.67
2018-09-28T20:21:10.491Z,999.90
2018-09-28T20:23:38.450Z,999.90
2018-09-28T20:26:06.528Z,999.90
2018-09-28T20:28:34.415Z,994.23
2018-09-28T20:31:02.310Z,952.17
2018-09-28T20:33:30.237Z,929.87
2018-09-28T20:35:58.188Z,890.50
2018-09-28T20:38:26.098Z,787.33
2018-09-28T20:40:54.071Z,739.27
2018-09-28T20:43:21.923Z,797.07
2018-09-28T20:45:50.078Z,795.70
2018-09-28T20:48:17.903Z,896.03
2018-09-28T20:50:45.750Z,906.13
2018-09-28T20:53:13.622Z,905.60
2018-09-28T20:55:41.634Z,793.07
2018-09-28T20:58:09.454Z,770.90
2018-09-28T21:00:37.329Z,847.60
2018-09-28T21:03:05.410Z,962.73
2018-09-28T21:05:33.773Z,924.20
2018-09-28T21:08:01.647Z,999.90
2018-09-28T21:10:29.498Z,999.90
2018-09-28T21:12:57.524Z,982.37
2018-09-28T21:15:25.934Z,999.90
2018-09-28T21:17:53.879Z,999.90
2018-09-28T21:20:21.783Z,984.30
2018-09-28T21:22:49.838Z,999.90
2018-09-28T21:25:17.789Z,999.90
2018-09-28T21:27:45.661Z,999.90
2018-09-28T21:30:13.573Z,979.90
2018-09-28T21:32:41.440Z,999.90
2018-09-28T21:35:09.810Z,999.90
2018-09-28T21:37:37.674Z,999.90
2018-09-28T21:40:05.530Z,988.40
2018-09-28T21:42:33.564Z,999.90
2018-09-28T21:45:01.459Z,999.90
2018-09-28T21:47:29.477Z,988.67
2018-09-28T21:49:57.418Z,997.87
2018-09-28T21:52:25.283Z,999.90
2018-09-28T21:54:53.143Z,999.90
2018-09-28T21:57:20.991Z,999.90
2018-09-28T21:59:48.875Z,895.97
2018-09-28T22:02:16.727Z,999.90
2018-09-28T22:04:44.648Z,977.00
2018-09-28T22:07:12.494Z,994.10
2018-09-28T22:09:40.381Z,999.90
2018-09-28T22:12:08.227Z,999.90
2018-09-28T22:14:36.107Z,999.90
2018-09-28T22:17:03.959Z,997.60
2018-09-28T22:19:31.816Z,999.90
2018-09-28T22:21:59.654Z,978.33
2018-09-28T22:24:27.523Z,999.90
2018-09-28T22:26:55.451Z,994.93
2018-09-28T22:29:23.332Z,999.90
2018-09-28T22:31:51.213Z,999.90
2018-09-28T22:34:19.165Z,992.83
2018-09-28T22:36:47.026Z,979.37
2018-09-28T22:39:14.892Z,976.03
2018-09-28T22:41:42.744Z,995.50
2018-09-28T22:44:10.607Z,993.07
2018-09-28T22:46:38.642Z,999.90
2018-09-28T22:49:06.510Z,999.90
2018-09-28T22:51:34.363Z,999.90
2018-09-28T22:54:02.245Z,999.90
2018-09-28T22:56:30.123Z,999.90
2018-09-28T22:58:58.023Z,999.90
2018-09-28T23:01:25.903Z,999.90
2018-09-28T23:03:53.829Z,999.90
2018-09-28T23:06:21.691Z,999.90
2018-09-28T23:08:49.604Z,999.90
2018-09-28T23:11:17.619Z,999.90
2018-09-28T23:13:45.575Z,999.90
2018-09-28T23:16:13.441Z,999.90
2018-09-28T23:18:41.367Z,999.90
2018-09-28T23:21:09.234Z,999.90
2018-09-28T23:23:38.202Z,999.90
2018-09-28T23:26:06.079Z,979.50
2018-09-28T23:28:34.011Z,999.90
2018-09-28T23:31:01.888Z,999.90
2018-09-28T23:33:29.782Z,999.90
2018-09-28T23:35:57.674Z,999.90
2018-09-28T23:38:25.567Z,987.40
2018-09-28T23:40:53.487Z,999.90
2018-09-28T23:43:21.568Z,999.90
2018-09-28T23:45:49.460Z,999.90
2018-09-28T23:48:17.353Z,999.90
2018-09-28T23:50:45.236Z,999.90
2018-09-28T23:53:13.125Z,982.67
2018-09-28T23:55:41.028Z,987.70
2018-09-28T23:58:08.933Z,988.00
